Time;durP1;ratioP1;P1;durP2;ratioP2;P2;SDS_P1;SDS_P2;PMS_P1;PMS_P2;Temp;Humidity;BMP_temperature;BMP_pressure;BME280_temperature;BME280_humidity;BME280_pressure;Samples;Min_cycle;Max_cycle;Signal;HPM_P1;HPM_P2
2022/07/17 00:01:30;;;;;;;10.98;6.75;;;17.70;71.40;;;;;;5005347;28;20382;-81
2022/07/17 00:03:56;;;;;;;10.10;7.30;;;17.70;71.40;;;;;;5032572;28;20382;-81
2022/07/17 00:06:23;;;;;;;8.00;5.72;;;17.70;71.50;;;;;;4998365;28;20039;-81
2022/07/17 00:08:49;;;;;;;7.30;6.50;;;17.60;71.40;;;;;;5000284;28;20026;-80
2022/07/17 00:11:16;;;;;;;4.82;4.32;;;17.60;71.50;;;;;;5007325;27;20031;-82
2022/07/17 00:13:42;;;;;;;7.78;4.60;;;17.60;71.00;;;;;;5014328;27;20362;-75
2022/07/17 00:16:09;;;;;;;3.95;3.20;;;17.60;70.60;;;;;;4992567;28;20051;-82
2022/07/17 00:18:35;;;;;;;4.43;3.42;;;17.70;70.30;;;;;;5002233;28;20035;-78
2022/07/17 00:21:02;;;;;;;6.95;3.50;;;17.60;70.00;;;;;;4999884;28;20062;-73
2022/07/17 00:23:28;;;;;;;5.97;2.92;;;17.60;69.80;;;;;;4996214;28;20019;-80
2022/07/17 00:25:55;;;;;;;7.30;3.10;;;17.60;69.60;;;;;;5000499;28;20405;-75
2022/07/17 00:28:21;;;;;;;4.72;2.97;;;17.60;69.50;;;;;;4989577;28;20426;-76
2022/07/17 00:30:48;;;;;;;3.55;2.60;;;17.60;69.40;;;;;;5007179;28;20030;-84
2022/07/17 00:33:14;;;;;;;5.28;2.53;;;17.60;69.10;;;;;;4985002;28;20101;-85
2022/07/17 00:35:40;;;;;;;3.40;2.40;;;17.60;69.00;;;;;;5015986;28;20062;-78
2022/07/17 00:38:07;;;;;;;5.97;2.67;;;17.60;68.70;;;;;;4999863;28;20027;-78
2022/07/17 00:40:33;;;;;;;1.60;1.50;;;17.60;68.60;;;;;;5014389;28;20016;-75
2022/07/17 00:43:00;;;;;;;2.08;1.88;;;17.50;68.40;;;;;;4996750;28;20569;-78
2022/07/17 00:45:27;;;;;;;5.50;2.72;;;17.50;68.10;;;;;;5008330;28;20039;-75
2022/07/17 00:47:58;;;;;;;9.80;2.50;;;17.50;68.20;;;;;;5019227;28;20177;-78
2022/07/17 00:50:29;;;;;;;4.95;2.40;;;17.50;68.70;;;;;;5014347;28;20019;-74
2022/07/17 00:52:56;;;;;;;3.17;2.58;;;17.50;69.30;;;;;;5002693;28;20045;-82
2022/07/17 00:55:24;;;;;;;4.60;2.20;;;17.60;69.70;;;;;;4993393;28;20394;-80
2022/07/17 00:57:54;;;;;;;9.15;2.80;;;17.60;69.80;;;;;;5010120;28;20022;-75
2022/07/17 01:00:21;;;;;;;4.05;3.35;;;17.60;69.60;;;;;;4996770;28;20027;-79
2022/07/17 01:02:50;;;;;;;11.23;3.55;;;17.60;69.30;;;;;;5010201;28;20483;-78
2022/07/17 01:05:18;;;;;;;4.10;2.97;;;17.60;68.50;;;;;;4983255;28;20490;-77
2022/07/17 01:07:45;;;;;;;7.47;5.03;;;17.60;67.40;;;;;;5022874;28;20418;-75
2022/07/17 01:10:12;;;;;;;10.25;4.43;;;17.60;67.60;;;;;;4991363;28;20048;-77
2022/07/17 01:12:40;;;;;;;7.22;5.63;;;17.60;68.10;;;;;;4994736;28;20030;-77
2022/07/17 01:15:09;;;;;;;9.80;6.05;;;17.60;68.50;;;;;;4992701;28;20515;-76
2022/07/17 01:17:36;;;;;;;7.68;5.43;;;17.60;68.80;;;;;;5007298;28;20046;-77
2022/07/17 01:20:05;;;;;;;8.50;4.63;;;17.60;68.70;;;;;;4985991;28;20030;-83
2022/07/17 01:22:32;;;;;;;7.13;4.63;;;17.60;68.60;;;;;;5008587;27;20056;-74
2022/07/17 01:24:58;;;;;;;5.40;4.57;;;17.50;68.20;;;;;;4988767;28;20026;-78
2022/07/17 01:27:25;;;;;;;7.30;5.15;;;17.50;68.40;;;;;;5003475;28;20027;-76
2022/07/17 01:29:51;;;;;;;6.97;4.63;;;17.50;68.50;;;;;;4992407;28;20541;-80
2022/07/17 01:32:18;;;;;;;8.40;5.25;;;17.50;68.50;;;;;;4994594;28;20019;-76
2022/07/17 01:34:44;;;;;;;5.00;4.03;;;17.50;68.50;;;;;;5024373;28;20409;-76
2022/07/17 01:37:11;;;;;;;3.95;3.40;;;17.40;68.50;;;;;;4998985;28;20110;-81
2022/07/17 01:39:52;;;;;;;6.97;3.55;;;17.40;68.10;;;;;;5019846;28;20087;-73
2022/07/17 01:42:19;;;;;;;6.60;2.72;;;17.40;67.80;;;;;;5013999;28;20118;-73
2022/07/17 01:44:46;;;;;;;3.15;2.15;;;17.40;67.80;;;;;;5025132;28;20079;-74
2022/07/17 01:47:14;;;;;;;2.25;2.05;;;17.40;67.70;;;;;;5019111;28;20028;-73
2022/07/17 01:50:02;;;;;;;6.25;2.17;;;17.40;67.80;;;;;;5022760;28;20033;-76
2022/07/17 01:52:28;;;;;;;3.17;2.22;;;17.40;67.60;;;;;;4988370;28;20018;-79
2022/07/17 01:54:55;;;;;;;2.85;2.05;;;17.40;67.60;;;;;;5011618;28;20026;-73
2022/07/17 01:57:22;;;;;;;2.65;1.80;;;17.40;67.50;;;;;;5014633;28;20026;-78
2022/07/17 01:59:48;;;;;;;1.63;1.35;;;17.40;67.20;;;;;;5005846;28;20066;-74
2022/07/17 02:02:15;;;;;;;2.42;1.95;;;17.40;67.20;;;;;;5002609;28;20031;-74
2022/07/17 02:04:42;;;;;;;2.22;1.52;;;17.50;67.10;;;;;;5017138;28;20094;-77
2022/07/17 02:07:10;;;;;;;6.05;2.17;;;17.40;67.00;;;;;;5004775;28;20027;-77
2022/07/17 02:09:37;;;;;;;1.75;1.65;;;17.50;67.30;;;;;;5010246;28;20058;-77
2022/07/17 02:12:03;;;;;;;2.80;1.92;;;17.50;67.70;;;;;;5028626;28;20026;-76
2022/07/17 02:14:31;;;;;;;5.53;1.55;;;17.50;67.50;;;;;;4996059;28;20042;-72
2022/07/17 02:16:57;;;;;;;2.13;1.77;;;17.50;67.50;;;;;;5013287;28;20023;-76
2022/07/17 02:19:24;;;;;;;4.55;1.95;;;17.60;67.60;;;;;;5018911;28;20116;-74
2022/07/17 02:21:51;;;;;;;1.88;1.63;;;17.60;67.80;;;;;;5002760;28;20051;-76
2022/07/17 02:24:17;;;;;;;3.17;2.10;;;17.60;67.50;;;;;;5019271;28;20390;-81
2022/07/17 02:26:43;;;;;;;2.00;1.80;;;17.60;67.30;;;;;;4986976;28;20028;-74
2022/07/17 02:29:10;;;;;;;2.28;1.75;;;17.60;67.10;;;;;;5006386;28;20577;-81
2022/07/17 02:31:37;;;;;;;2.75;1.75;;;17.60;66.70;;;;;;5009837;28;20060;-73
2022/07/17 02:34:03;;;;;;;2.63;2.03;;;17.60;66.70;;;;;;5008578;28;20733;-77
2022/07/17 02:36:30;;;;;;;1.55;1.45;;;17.60;66.40;;;;;;5003452;28;20039;-78
2022/07/17 02:38:57;;;;;;;1.52;1.40;;;17.60;66.10;;;;;;4989409;28;20075;-77
2022/07/17 02:41:24;;;;;;;1.52;1.30;;;17.70;65.90;;;;;;4991399;28;20058;-76
2022/07/17 02:43:50;;;;;;;1.35;1.20;;;17.70;65.80;;;;;;5028164;28;20032;-79
2022/07/17 02:46:17;;;;;;;2.50;1.45;;;17.70;65.70;;;;;;4999737;28;20352;-77
2022/07/17 02:48:43;;;;;;;5.18;1.60;;;17.70;65.70;;;;;;5032464;28;20061;-75
2022/07/17 02:51:10;;;;;;;4.40;1.30;;;17.60;65.70;;;;;;5000931;28;20042;-76
2022/07/17 02:53:37;;;;;;;1.83;1.60;;;17.70;66.10;;;;;;5011518;28;20022;-75
2022/07/17 02:56:03;;;;;;;2.88;1.40;;;17.70;65.80;;;;;;5015529;28;20107;-74
2022/07/17 02:58:30;;;;;;;1.45;1.33;;;17.70;65.80;;;;;;5005245;28;20024;-73
2022/07/17 03:00:56;;;;;;;4.95;2.08;;;17.70;65.80;;;;;;5009978;28;20378;-73
2022/07/17 03:03:23;;;;;;;2.20;1.17;;;17.60;65.70;;;;;;5011041;28;20050;-73
2022/07/17 03:05:50;;;;;;;3.38;1.60;;;17.70;65.70;;;;;;5000082;28;20524;-78
2022/07/17 03:08:16;;;;;;;2.58;1.00;;;17.70;65.80;;;;;;5000570;28;20030;-73
2022/07/17 03:10:43;;;;;;;2.97;1.75;;;17.60;65.70;;;;;;5016562;28;20014;-71
2022/07/17 03:13:09;;;;;;;4.68;1.92;;;17.70;65.70;;;;;;4989959;28;20026;-80
2022/07/17 03:15:36;;;;;;;2.10;1.45;;;17.60;65.40;;;;;;5034515;28;20039;-72
2022/07/17 03:18:02;;;;;;;4.63;1.83;;;17.60;65.10;;;;;;4993684;28;20452;-77
2022/07/17 03:20:29;;;;;;;4.28;1.83;;;17.70;65.30;;;;;;5017517;28;20023;-79
2022/07/17 03:22:55;;;;;;;1.40;1.25;;;17.60;64.90;;;;;;4993224;28;20058;-78
2022/07/17 03:25:22;;;;;;;1.63;1.52;;;17.70;64.80;;;;;;5001361;28;20039;-75
2022/07/17 03:27:48;;;;;;;1.80;1.70;;;17.60;65.00;;;;;;5006173;28;20016;-74
2022/07/17 03:30:15;;;;;;;2.20;1.60;;;17.60;64.80;;;;;;5008300;28;20022;-77
2022/07/17 03:32:41;;;;;;;2.38;1.70;;;17.70;64.30;;;;;;4986352;28;20034;-73
2022/07/17 03:35:08;;;;;;;1.90;1.52;;;17.70;64.70;;;;;;5011390;28;20109;-74
2022/07/17 03:37:37;;;;;;;1.67;1.58;;;17.70;64.70;;;;;;5008523;28;20079;-73
2022/07/17 03:40:07;;;;;;;2.45;1.70;;;17.70;64.20;;;;;;5005339;28;20410;-75
2022/07/17 03:42:34;;;;;;;1.95;1.55;;;17.70;64.60;;;;;;5004223;28;20065;-75
2022/07/17 03:45:00;;;;;;;4.50;1.75;;;17.70;64.70;;;;;;5014282;28;20031;-74
2022/07/17 03:47:27;;;;;;;5.57;2.10;;;17.70;64.60;;;;;;5012327;28;20030;-78
2022/07/17 03:49:53;;;;;;;1.42;1.33;;;17.70;64.90;;;;;;4999027;28;20122;-74
2022/07/17 03:52:20;;;;;;;3.78;1.42;;;17.70;63.70;;;;;;5016336;28;20027;-77
2022/07/17 03:54:46;;;;;;;4.00;1.80;;;17.70;63.70;;;;;;5004796;28;20073;-75
2022/07/17 03:57:13;;;;;;;7.30;1.50;;;17.70;63.30;;;;;;4988197;28;20081;-73
2022/07/17 03:59:39;;;;;;;5.68;1.42;;;17.70;63.80;;;;;;4994698;28;20435;-72
2022/07/17 04:02:06;;;;;;;9.95;2.83;;;17.70;64.40;;;;;;5017276;28;20076;-78
2022/07/17 04:04:32;;;;;;;1.80;1.70;;;17.70;64.70;;;;;;5005751;28;20094;-76
2022/07/17 04:06:59;;;;;;;12.55;9.20;;;17.60;64.60;;;;;;5020345;28;20028;-74
2022/07/17 04:09:25;;;;;;;24.63;11.60;;;17.60;64.10;;;;;;4991011;28;20080;-81
2022/07/17 04:11:51;;;;;;;17.63;9.65;;;17.60;64.70;;;;;;5021083;28;20024;-75
2022/07/17 04:14:18;;;;;;;14.68;8.32;;;17.60;64.50;;;;;;5013107;28;20109;-82
2022/07/17 04:16:44;;;;;;;7.55;5.13;;;17.60;64.30;;;;;;4995369;28;20036;-76
2022/07/17 04:19:11;;;;;;;9.32;4.57;;;17.60;63.50;;;;;;4999399;28;20099;-80
2022/07/17 04:21:37;;;;;;;13.35;4.30;;;17.60;63.00;;;;;;5000228;28;20038;-78
2022/07/17 04:24:04;;;;;;;9.23;3.33;;;17.60;63.20;;;;;;5003075;28;20036;-79
2022/07/17 04:26:31;;;;;;;14.57;3.80;;;17.50;63.30;;;;;;4980465;28;20501;-80
2022/07/17 04:28:57;;;;;;;14.20;3.55;;;17.50;63.10;;;;;;5000626;28;20459;-76
2022/07/17 04:31:24;;;;;;;6.15;3.17;;;17.50;63.10;;;;;;5015511;28;20560;-76
2022/07/17 04:33:52;;;;;;;6.63;2.58;;;17.50;63.20;;;;;;4996866;28;20024;-76
2022/07/17 04:36:19;;;;;;;8.18;2.80;;;17.50;63.20;;;;;;4984805;28;20369;-77
2022/07/17 04:38:45;;;;;;;3.90;2.03;;;17.50;63.30;;;;;;5007990;28;20075;-78
2022/07/17 04:41:12;;;;;;;8.98;3.25;;;17.40;63.00;;;;;;4993517;28;20042;-76
2022/07/17 04:43:38;;;;;;;7.13;2.47;;;17.40;62.10;;;;;;5006736;28;20072;-75
2022/07/17 04:46:06;;;;;;;58.47;41.22;;;17.40;62.50;;;;;;4994521;28;20122;-72
2022/07/17 04:48:32;;;;;;;56.47;41.00;;;17.40;63.10;;;;;;5020976;28;20157;-79
2022/07/17 04:50:58;;;;;;;39.58;27.65;;;17.40;62.40;;;;;;4993731;28;20382;-75
2022/07/17 04:53:25;;;;;;;27.42;20.27;;;17.40;62.50;;;;;;4993013;28;20080;-73
2022/07/17 04:55:51;;;;;;;18.10;14.93;;;17.40;62.50;;;;;;5003121;28;20486;-76
2022/07/17 04:58:18;;;;;;;13.98;10.88;;;17.40;62.70;;;;;;4988581;28;20486;-80
2022/07/17 05:00:45;;;;;;;14.73;8.15;;;17.40;62.60;;;;;;5021957;28;20025;-80
2022/07/17 05:03:11;;;;;;;21.77;6.65;;;17.30;62.20;;;;;;4990473;28;20031;-78
2022/07/17 05:05:40;;;;;;;15.52;5.72;;;17.30;62.10;;;;;;5024436;28;20130;-76
2022/07/17 05:08:06;;;;;;;10.73;4.85;;;17.30;63.00;;;;;;4985208;28;20398;-77
2022/07/17 05:10:33;;;;;;;7.82;3.70;;;17.30;62.70;;;;;;4989547;28;20488;-78
2022/07/17 05:12:59;;;;;;;7.25;3.47;;;17.20;62.80;;;;;;4985970;28;20030;-78
2022/07/17 05:15:25;;;;;;;8.15;3.42;;;17.20;62.80;;;;;;5036272;28;20175;-77
2022/07/17 05:17:52;;;;;;;10.93;3.30;;;17.30;63.00;;;;;;4982277;28;20069;-81
2022/07/17 05:20:18;;;;;;;8.32;3.45;;;17.20;63.10;;;;;;4989540;28;20103;-79
2022/07/17 05:22:45;;;;;;;7.20;3.10;;;17.20;63.30;;;;;;4980406;28;20024;-81
2022/07/17 05:25:11;;;;;;;11.18;3.08;;;17.20;63.40;;;;;;4981695;28;20039;-81
2022/07/17 05:27:38;;;;;;;8.00;4.32;;;17.20;63.00;;;;;;4987069;28;20499;-74
2022/07/17 05:30:05;;;;;;;12.57;3.33;;;17.10;63.00;;;;;;4990396;28;20037;-74
2022/07/17 05:32:31;;;;;;;6.95;2.63;;;17.20;63.30;;;;;;4992538;28;20481;-82
2022/07/17 05:34:58;;;;;;;9.88;2.53;;;17.10;63.30;;;;;;4991351;28;20033;-76
2022/07/17 05:37:24;;;;;;;2.45;1.98;;;17.10;63.30;;;;;;4994979;28;20027;-75
2022/07/17 05:39:51;;;;;;;10.57;3.15;;;17.10;63.40;;;;;;4994289;28;20030;-79
2022/07/17 05:42:17;;;;;;;7.40;3.25;;;17.10;63.50;;;;;;4992260;28;20111;-78
2022/07/17 05:44:44;;;;;;;9.98;3.42;;;17.10;63.70;;;;;;4996932;28;20017;-74
2022/07/17 05:47:10;;;;;;;5.82;2.78;;;17.10;63.90;;;;;;4990565;28;20027;-77
2022/07/17 05:49:37;;;;;;;3.35;2.65;;;17.10;64.20;;;;;;4996001;28;20398;-80
2022/07/17 05:52:04;;;;;;;7.30;3.53;;;17.10;64.30;;;;;;4992214;28;20034;-80
2022/07/17 05:54:32;;;;;;;8.85;3.97;;;17.10;64.40;;;;;;5016553;28;20031;-77
2022/07/17 05:56:59;;;;;;;4.45;2.72;;;17.10;65.40;;;;;;5020536;28;20026;-74
2022/07/17 05:59:26;;;;;;;9.50;3.00;;;17.10;64.80;;;;;;4991944;28;20062;-74
2022/07/17 06:01:52;;;;;;;6.53;3.28;;;17.20;64.90;;;;;;5000785;28;20881;-80
2022/07/17 06:04:19;;;;;;;5.70;2.70;;;17.10;64.80;;;;;;4998328;28;20038;-78
2022/07/17 06:06:46;;;;;;;10.25;3.15;;;17.10;64.90;;;;;;5002466;28;20105;-74
2022/07/17 06:09:13;;;;;;;16.63;3.45;;;17.10;64.90;;;;;;4984468;28;20101;-74
2022/07/17 06:11:39;;;;;;;13.40;5.88;;;17.20;64.90;;;;;;5013042;28;20026;-76
2022/07/17 06:14:06;;;;;;;11.77;5.97;;;17.20;64.90;;;;;;4988006;28;20092;-75
2022/07/17 06:16:32;;;;;;;15.15;4.75;;;17.20;64.90;;;;;;4988688;28;20051;-77
2022/07/17 06:18:59;;;;;;;7.55;4.28;;;17.20;64.80;;;;;;4982538;28;20079;-81
2022/07/17 06:21:25;;;;;;;18.02;3.90;;;17.20;64.50;;;;;;4982386;28;20113;-79
2022/07/17 06:23:52;;;;;;;7.38;3.45;;;17.20;64.30;;;;;;4985069;28;20039;-76
2022/07/17 06:26:19;;;;;;;4.80;3.28;;;17.20;64.00;;;;;;4976371;28;20031;-74
2022/07/17 06:28:45;;;;;;;8.73;3.00;;;17.10;63.60;;;;;;4977282;28;20501;-73
2022/07/17 06:31:12;;;;;;;7.25;3.03;;;17.10;63.50;;;;;;4979596;28;20097;-79
2022/07/17 06:33:39;;;;;;;5.75;3.10;;;17.10;63.30;;;;;;4985399;28;20157;-72
2022/07/17 06:36:05;;;;;;;7.35;3.15;;;17.10;63.90;;;;;;4983050;28;20485;-80
2022/07/17 06:38:33;;;;;;;5.53;3.28;;;17.10;63.80;;;;;;4984457;28;20089;-75
2022/07/17 06:41:01;;;;;;;8.05;3.20;;;17.10;62.70;;;;;;4979772;28;20022;-73
2022/07/17 06:43:28;;;;;;;6.88;3.70;;;17.10;62.70;;;;;;5016131;27;20019;-78
2022/07/17 06:45:55;;;;;;;10.95;3.55;;;17.10;62.90;;;;;;4981065;28;20042;-74
2022/07/17 06:48:22;;;;;;;15.80;4.57;;;17.20;63.40;;;;;;4989216;28;20015;-74
2022/07/17 06:50:49;;;;;;;24.80;4.88;;;17.20;63.80;;;;;;4989330;28;20154;-77
2022/07/17 06:53:16;;;;;;;13.30;3.78;;;17.20;64.10;;;;;;4990369;28;20030;-73
2022/07/17 06:55:43;;;;;;;18.58;4.47;;;17.20;64.30;;;;;;4982590;28;20038;-72
2022/07/17 06:58:09;;;;;;;13.40;5.55;;;17.20;65.20;;;;;;4982856;28;20469;-73
2022/07/17 07:00:36;;;;;;;15.23;6.47;;;17.20;64.70;;;;;;4971124;28;20037;-72
2022/07/17 07:03:03;;;;;;;39.85;21.45;;;17.20;64.90;;;;;;4977195;28;20019;-72
2022/07/17 07:05:29;;;;;;;33.53;18.55;;;17.30;66.50;;;;;;4981895;28;20191;-74
2022/07/17 07:07:56;;;;;;;29.45;16.73;;;17.30;66.50;;;;;;4982825;28;20027;-70
2022/07/17 07:10:23;;;;;;;35.92;12.98;;;17.30;67.00;;;;;;4978982;28;20434;-74
2022/07/17 07:12:49;;;;;;;21.40;10.32;;;17.30;67.20;;;;;;4977920;28;20023;-76
2022/07/17 07:15:16;;;;;;;21.77;9.73;;;17.40;66.90;;;;;;4979816;28;20416;-80
2022/07/17 07:17:44;;;;;;;15.07;7.47;;;17.30;67.20;;;;;;4977280;28;20027;-73
2022/07/17 07:20:11;;;;;;;15.02;6.63;;;17.30;67.60;;;;;;4970182;28;20117;-74
2022/07/17 07:22:37;;;;;;;15.27;6.63;;;17.30;67.50;;;;;;4976978;28;20023;-72
2022/07/17 07:25:05;;;;;;;15.38;5.68;;;17.30;67.60;;;;;;4978260;28;20038;-73
2022/07/17 07:27:32;;;;;;;10.23;6.07;;;17.30;67.80;;;;;;4974300;28;20168;-72
2022/07/17 07:29:58;;;;;;;26.55;5.40;;;17.30;67.60;;;;;;4978313;28;20023;-80
2022/07/17 07:32:25;;;;;;;13.00;4.63;;;17.30;67.80;;;;;;4983176;28;20030;-77
2022/07/17 07:34:51;;;;;;;15.98;5.50;;;17.40;68.30;;;;;;4972010;28;20015;-81
2022/07/17 07:37:18;;;;;;;24.17;11.10;;;17.40;68.60;;;;;;4976047;28;20022;-84
2022/07/17 07:39:45;;;;;;;28.40;10.55;;;17.40;69.00;;;;;;4980613;28;20060;-79
2022/07/17 07:42:11;;;;;;;21.15;9.40;;;17.40;69.60;;;;;;4988854;28;20023;-76
2022/07/17 07:44:38;;;;;;;14.77;6.63;;;17.40;70.20;;;;;;4993265;28;20908;-75
2022/07/17 07:47:04;;;;;;;15.82;5.45;;;17.40;70.60;;;;;;4981828;28;20035;-78
2022/07/17 07:49:31;;;;;;;12.25;5.45;;;17.40;71.10;;;;;;4990785;28;20024;-82
2022/07/17 07:51:57;;;;;;;13.30;5.45;;;17.50;71.60;;;;;;4985388;28;20026;-81
2022/07/17 07:54:24;;;;;;;19.33;4.93;;;17.50;72.10;;;;;;4993493;28;20022;-76
2022/07/17 07:56:50;;;;;;;21.80;4.80;;;17.60;72.20;;;;;;4993892;28;20088;-77
2022/07/17 07:59:17;;;;;;;26.27;5.05;;;17.70;73.90;;;;;;4988952;28;20477;-78
2022/07/17 08:01:43;;;;;;;8.35;3.65;;;17.70;74.00;;;;;;4989570;28;20109;-79
2022/07/17 08:04:10;;;;;;;19.17;4.85;;;17.70;74.30;;;;;;4985758;28;20022;-77
2022/07/17 08:06:38;;;;;;;19.83;8.45;;;17.70;74.90;;;;;;4998743;28;20161;-79
2022/07/17 08:09:04;;;;;;;18.30;9.38;;;17.70;75.00;;;;;;4991303;28;20041;-75
2022/07/17 08:11:31;;;;;;;11.48;6.07;;;17.80;75.30;;;;;;4983859;28;20027;-77
2022/07/17 08:13:57;;;;;;;12.77;5.85;;;17.70;75.70;;;;;;4983804;28;20026;-84
2022/07/17 08:16:24;;;;;;;14.23;4.85;;;17.80;76.10;;;;;;4984867;28;20125;-78
2022/07/17 08:18:50;;;;;;;15.48;4.45;;;17.80;76.50;;;;;;5015494;28;20489;-82
2022/07/17 08:21:17;;;;;;;8.15;3.83;;;17.80;77.20;;;;;;5008650;28;20095;-85
2022/07/17 08:23:43;;;;;;;9.32;4.72;;;17.80;77.70;;;;;;5007213;28;20027;-86
2022/07/17 08:26:10;;;;;;;10.57;4.15;;;17.80;78.30;;;;;;4974736;28;20038;-86
2022/07/17 08:28:36;;;;;;;14.80;4.10;;;17.90;79.10;;;;;;4997826;28;20103;-81
2022/07/17 08:31:03;;;;;;;9.30;3.45;;;17.90;79.70;;;;;;4991783;27;20035;-85
2022/07/17 08:33:30;;;;;;;7.55;3.58;;;18.00;80.40;;;;;;5004848;28;20584;-83
2022/07/17 08:35:56;;;;;;;7.38;4.68;;;18.00;81.00;;;;;;5008912;28;20051;-86
2022/07/17 08:38:23;;;;;;;10.18;3.88;;;18.00;81.70;;;;;;5028729;28;20031;-87
2022/07/17 08:40:52;;;;;;;8.75;3.92;;;18.00;82.00;;;;;;5013779;28;20098;-86
2022/07/17 08:43:19;;;;;;;12.10;3.95;;;18.10;82.50;;;;;;5002721;28;20022;-86
2022/07/17 08:45:47;;;;;;;6.63;3.63;;;18.10;82.60;;;;;;5020429;28;20039;-87
2022/07/17 08:48:16;;;;;;;12.48;6.07;;;18.10;82.80;;;;;;5003861;28;20030;-86
2022/07/17 08:50:43;;;;;;;6.85;3.40;;;18.10;83.00;;;;;;5028960;28;20019;-86
2022/07/17 08:53:10;;;;;;;9.77;3.67;;;18.20;83.10;;;;;;5003450;28;20026;-81
2022/07/17 08:55:37;;;;;;;7.65;4.75;;;18.20;83.30;;;;;;5009481;28;20031;-82
2022/07/17 08:58:06;;;;;;;10.40;3.63;;;18.20;83.40;;;;;;4983724;28;20033;-84
2022/07/17 09:00:33;;;;;;;8.65;3.53;;;18.20;83.50;;;;;;5034165;28;20026;-85
2022/07/17 09:03:02;;;;;;;9.07;3.85;;;18.20;83.70;;;;;;5020989;28;20026;-87
2022/07/17 09:05:33;;;;;;;7.65;3.42;;;18.20;83.70;;;;;;5005678;28;20030;-85
2022/07/17 09:08:00;;;;;;;8.10;4.43;;;18.20;83.90;;;;;;4985076;28;20023;-85
2022/07/17 09:10:37;;;;;;;15.30;5.07;;;18.30;84.20;;;;;;4990921;28;20106;-86
2022/07/17 09:13:23;;;;;;;12.60;3.22;;;18.30;84.70;;;;;;4982859;28;20018;-79
2022/07/17 09:15:52;;;;;;;12.35;3.53;;;18.30;85.30;;;;;;4982641;28;20043;-82
2022/07/17 09:18:19;;;;;;;11.52;3.92;;;18.40;85.50;;;;;;4982886;28;20158;-84
2022/07/17 09:20:56;;;;;;;9.73;4.25;;;18.40;85.40;;;;;;4983646;28;20031;-84
2022/07/17 09:23:25;;;;;;;7.15;3.45;;;18.40;85.20;;;;;;4993099;28;20033;-82
2022/07/17 09:25:55;;;;;;;13.05;3.75;;;18.40;85.00;;;;;;5003948;27;20443;-84
2022/07/17 09:28:22;;;;;;;7.50;2.67;;;18.50;85.00;;;;;;5008866;28;20509;-84
2022/07/17 09:30:52;;;;;;;8.60;3.30;;;18.50;84.70;;;;;;4999324;28;20024;-85
2022/07/17 09:33:27;;;;;;;13.77;3.95;;;18.60;84.60;;;;;;5020705;28;20072;-83
2022/07/17 09:36:07;;;;;;;9.07;4.40;;;18.60;84.50;;;;;;4990923;28;20019;-81
2022/07/17 09:38:38;;;;;;;7.90;3.10;;;18.70;84.40;;;;;;5024038;28;20042;-79
2022/07/17 09:41:12;;;;;;;9.40;2.58;;;18.70;84.30;;;;;;5006706;28;20017;-84
2022/07/17 09:44:01;;;;;;;7.80;3.40;;;18.70;84.20;;;;;;5009833;28;20155;-77
2022/07/17 09:46:32;;;;;;;33.60;17.60;;;18.80;84.10;;;;;;5010695;28;20147;-82
2022/07/17 09:49:04;;;;;;;38.15;15.23;;;18.90;84.10;;;;;;5004113;28;20027;-79
2022/07/17 09:51:37;;;;;;;24.25;11.45;;;18.90;84.10;;;;;;5000790;28;20014;-75
2022/07/17 09:54:06;;;;;;;15.98;7.43;;;18.90;84.40;;;;;;4986187;28;20023;-86
2022/07/17 09:56:34;;;;;;;11.77;6.03;;;19.00;84.40;;;;;;5003627;28;20618;-83
2022/07/17 09:59:05;;;;;;;12.52;5.57;;;19.00;84.30;;;;;;5005867;28;20037;-79
2022/07/17 10:01:33;;;;;;;13.15;5.13;;;19.10;84.20;;;;;;5006463;28;20028;-77
2022/07/17 10:03:59;;;;;;;11.07;5.07;;;19.10;84.70;;;;;;4984672;28;20014;-78
2022/07/17 10:06:26;;;;;;;9.27;3.80;;;19.20;83.90;;;;;;5001091;28;20031;-75
2022/07/17 10:08:54;;;;;;;6.15;4.25;;;19.20;83.80;;;;;;4977729;28;20018;-75
2022/07/17 10:11:22;;;;;;;14.18;4.10;;;19.20;83.70;;;;;;4994642;28;20038;-76
2022/07/17 10:13:52;;;;;;;19.00;4.70;;;19.30;83.60;;;;;;4988371;28;20608;-75
2022/07/17 10:16:30;;;;;;;15.63;6.72;;;19.30;83.40;;;;;;5000982;28;20091;-76
2022/07/17 10:18:59;;;;;;;17.35;6.40;;;19.40;83.20;;;;;;5006976;28;20660;-76
2022/07/17 10:21:27;;;;;;;28.83;19.55;;;19.50;83.10;;;;;;5004810;28;20469;-80
2022/07/17 10:23:54;;;;;;;18.17;9.45;;;19.50;83.00;;;;;;4989562;28;20034;-73
2022/07/17 10:26:32;;;;;;;12.88;5.68;;;19.50;82.80;;;;;;5004636;28;20073;-77
2022/07/17 10:28:59;;;;;;;15.27;4.07;;;19.60;82.30;;;;;;4988653;28;20362;-77
2022/07/17 10:31:28;;;;;;;9.18;3.53;;;19.70;82.20;;;;;;4990049;28;20027;-78
2022/07/17 10:34:03;;;;;;;13.88;4.05;;;19.70;81.70;;;;;;4988763;28;20114;-75
2022/07/17 10:36:41;;;;;;;16.55;4.28;;;19.90;81.20;;;;;;5014680;28;20058;-75
2022/07/17 10:39:16;;;;;;;8.23;3.65;;;19.90;80.90;;;;;;4989185;28;20466;-74
2022/07/17 10:41:43;;;;;;;9.87;3.90;;;20.00;80.80;;;;;;5006484;28;20381;-77
2022/07/17 10:44:10;;;;;;;8.57;3.28;;;20.00;80.40;;;;;;4984842;28;20042;-70
2022/07/17 10:46:36;;;;;;;8.18;3.65;;;20.10;80.10;;;;;;5006487;28;20034;-72
2022/07/17 10:49:03;;;;;;;12.35;5.00;;;20.10;79.90;;;;;;4997456;28;20022;-74
2022/07/17 10:51:32;;;;;;;36.88;27.52;;;20.20;79.90;;;;;;5010878;28;20034;-79
2022/07/17 10:53:59;;;;;;;14.75;8.35;;;20.20;79.90;;;;;;4993675;28;20039;-76
2022/07/17 10:56:26;;;;;;;13.38;5.72;;;20.30;79.70;;;;;;5002267;28;20485;-81
2022/07/17 10:58:53;;;;;;;8.05;3.13;;;20.30;79.40;;;;;;5018885;28;20027;-75
2022/07/17 11:01:21;;;;;;;11.93;4.28;;;20.40;79.70;;;;;;5019584;28;20029;-76
2022/07/17 11:03:52;;;;;;;9.57;3.90;;;20.50;79.20;;;;;;4988412;28;20012;-74
2022/07/17 11:06:18;;;;;;;13.35;4.68;;;20.50;78.90;;;;;;4989510;28;20100;-75
2022/07/17 11:08:49;;;;;;;11.45;3.47;;;20.60;78.70;;;;;;4995158;28;20392;-73
2022/07/17 11:11:18;;;;;;;9.88;3.85;;;20.60;78.10;;;;;;5010880;28;20022;-75
2022/07/17 11:13:45;;;;;;;12.13;3.83;;;20.70;78.00;;;;;;5016911;28;20397;-74
2022/07/17 11:16:12;;;;;;;13.80;4.35;;;20.70;77.50;;;;;;4993635;28;20070;-75
2022/07/17 11:18:47;;;;;;;9.75;3.78;;;20.70;77.90;;;;;;4992551;28;20075;-74
2022/07/17 11:21:14;;;;;;;10.38;3.78;;;20.60;78.10;;;;;;4999729;28;20053;-73
2022/07/17 11:23:56;;;;;;;10.75;3.83;;;20.60;78.30;;;;;;5013523;28;20034;-74
2022/07/17 11:26:23;;;;;;;5.03;2.65;;;20.60;78.30;;;;;;5006068;28;20042;-75
2022/07/17 11:28:52;;;;;;;8.50;3.67;;;20.60;78.30;;;;;;4993566;28;20020;-73
2022/07/17 11:31:27;;;;;;;11.82;3.92;;;20.60;79.00;;;;;;4982943;28;20015;-75
2022/07/17 11:34:08;;;;;;;8.73;3.08;;;20.60;78.40;;;;;;4985631;28;20811;-74
2022/07/17 11:36:41;;;;;;;13.20;4.63;;;20.60;78.50;;;;;;4985122;28;20427;-75
2022/07/17 11:39:13;;;;;;;12.10;4.93;;;20.60;78.50;;;;;;4983474;28;20027;-71
2022/07/17 11:41:46;;;;;;;8.50;3.45;;;20.60;78.40;;;;;;4994031;28;20065;-74
2022/07/17 11:44:15;;;;;;;13.43;3.85;;;20.70;78.90;;;;;;5008371;28;20110;-74
2022/07/17 11:46:47;;;;;;;5.40;2.90;;;20.70;79.20;;;;;;5004476;28;20347;-75
2022/07/17 11:49:25;;;;;;;10.25;4.22;;;20.80;79.00;;;;;;5001089;28;20014;-75
2022/07/17 11:51:54;;;;;;;6.60;3.33;;;20.80;78.80;;;;;;4998981;28;20471;-74
2022/07/17 11:54:21;;;;;;;11.18;4.13;;;20.90;78.70;;;;;;5008623;28;20117;-76
2022/07/17 11:56:55;;;;;;;10.45;3.30;;;20.90;78.70;;;;;;4997068;28;20055;-74
2022/07/17 11:59:32;;;;;;;11.68;3.72;;;21.00;78.40;;;;;;5004275;28;20113;-75
2022/07/17 12:02:10;;;;;;;16.60;3.75;;;21.00;78.10;;;;;;4978951;28;20122;-72
2022/07/17 12:04:52;;;;;;;6.88;3.03;;;21.00;77.70;;;;;;5016113;28;20023;-73
2022/07/17 12:07:19;;;;;;;20.80;4.22;;;21.10;78.00;;;;;;5021030;28;20331;-76
2022/07/17 12:09:45;;;;;;;12.23;4.10;;;21.10;78.00;;;;;;4997685;28;20024;-74
2022/07/17 12:12:21;;;;;;;17.70;4.75;;;21.10;77.90;;;;;;4992091;27;20392;-74
2022/07/17 12:14:57;;;;;;;11.63;3.55;;;21.10;77.70;;;;;;4998133;28;20125;-74
2022/07/17 12:17:25;;;;;;;9.40;4.00;;;21.10;77.40;;;;;;4999974;28;20109;-74
2022/07/17 12:19:52;;;;;;;12.05;4.15;;;21.20;77.30;;;;;;4994843;28;20023;-74
2022/07/17 12:22:18;;;;;;;13.50;3.45;;;21.10;77.00;;;;;;5018180;28;20019;-73
2022/07/17 12:24:46;;;;;;;12.50;3.83;;;21.10;76.90;;;;;;5004089;28;20034;-73
2022/07/17 12:27:14;;;;;;;15.15;3.35;;;21.10;76.80;;;;;;4986636;28;20035;-73
2022/07/17 12:29:42;;;;;;;9.63;4.20;;;21.10;76.90;;;;;;4996722;28;20050;-72
2022/07/17 12:32:13;;;;;;;9.90;3.92;;;21.10;76.80;;;;;;4994371;28;20023;-72
2022/07/17 12:34:45;;;;;;;10.60;4.00;;;21.10;76.50;;;;;;4994561;28;20137;-73
2022/07/17 12:37:16;;;;;;;10.32;4.53;;;21.00;76.30;;;;;;4995759;28;20440;-72
2022/07/17 12:39:43;;;;;;;9.25;3.45;;;21.00;76.40;;;;;;5006172;28;20023;-72
2022/07/17 12:42:10;;;;;;;8.32;3.92;;;21.00;76.50;;;;;;5001772;28;20023;-72
2022/07/17 12:44:37;;;;;;;10.73;3.70;;;21.00;76.60;;;;;;5008463;28;20470;-72
2022/07/17 12:47:04;;;;;;;9.73;3.95;;;21.00;77.40;;;;;;4992154;28;20045;-72